Aviation Digital Data Service (ADDS)

Output produced by TAFs form (1620 UTC 29 January 2015)
found at http://aviationweather.gov/adds/tafs/
 
KTEX 291132Z 2912/3012 13003KT P6SM BKN200 
     FM291800 25006KT P6SM BKN100 OVC150 
     FM300300 12004KT P6SM VCSH SCT050 OVC080 
     FM300900 16003KT 4SM -SN BR SCT025 OVC040